Time;durP1;ratioP1;P1;durP2;ratioP2;P2;SDS_P1;SDS_P2;PMS_P1;PMS_P2;Temp;Humidity;BMP_temperature;BMP_pressure;BME280_temperature;BME280_humidity;BME280_pressure;Samples;Min_cycle;Max_cycle;Signal;HPM_P1;HPM_P2
2021/07/02 00:00:17;;;;;;;5.15;3.70;;;;;;;;;;4987339;28;20494;-89
2021/07/02 00:02:44;;;;;;;4.77;3.80;;;;;;;;;;4987304;28;20413;-88
2021/07/02 00:05:13;;;;;;;4.75;3.88;;;;;;;;;;4987638;28;20876;-89
2021/07/02 00:07:40;;;;;;;5.43;3.75;;;;;;;;;;4987467;28;20405;-90
2021/07/02 00:10:08;;;;;;;4.47;3.65;;;;;;;;;;4985710;28;20420;-89
2021/07/02 00:12:39;;;;;;;4.07;3.67;;;;;;;;;;4987241;28;20416;-89
2021/07/02 00:15:07;;;;;;;6.70;3.75;;;;;;;;;;4984091;28;20413;-90
2021/07/02 00:17:34;;;;;;;4.78;4.32;;;;;;;;;;4987381;28;20448;-89
2021/07/02 00:20:01;;;;;;;5.45;4.45;;;;;;;;;;4986486;28;20416;-89
2021/07/02 00:22:27;;;;;;;8.77;4.40;;;;;;;;;;4986479;28;20455;-88
2021/07/02 00:24:54;;;;;;;5.07;4.45;;;;;;;;;;4986848;28;20740;-90
2021/07/02 00:27:22;;;;;;;4.80;3.90;;;;;;;;;;4984881;28;20412;-89
2021/07/02 00:29:50;;;;;;;5.13;4.28;;;;;;;;;;4987265;28;20420;-88
2021/07/02 00:32:17;;;;;;;5.18;3.88;;;;;;;;;;4986485;28;20412;-90
2021/07/02 00:34:44;;;;;;;8.18;4.03;;;;;;;;;;4986655;28;20765;-89
2021/07/02 00:37:11;;;;;;;5.68;3.65;;;;;;;;;;4987282;28;20471;-89
2021/07/02 00:39:38;;;;;;;6.93;4.57;;;;;;;;;;4985495;28;20947;-89
2021/07/02 00:42:05;;;;;;;4.63;4.22;;;;;;;;;;4986869;28;20415;-90
2021/07/02 00:44:40;;;;;;;5.00;4.27;;;;;;;;;;4986434;28;20548;-90
2021/07/02 00:47:09;;;;;;;7.57;4.45;;;;;;;;;;4985860;28;20471;-90
2021/07/02 00:49:36;;;;;;;7.47;4.38;;;;;;;;;;4977750;28;21212;-89
2021/07/02 00:52:05;;;;;;;6.00;4.63;;;;;;;;;;4983686;28;20478;-89
2021/07/02 00:54:33;;;;;;;5.25;4.22;;;;;;;;;;4978380;28;20426;-90
2021/07/02 00:57:01;;;;;;;6.72;3.97;;;;;;;;;;4974113;28;20484;-90
2021/07/02 00:59:28;;;;;;;4.28;3.78;;;;;;;;;;4977640;28;20413;-90
2021/07/02 01:01:55;;;;;;;6.80;4.10;;;;;;;;;;4979593;28;20471;-91
2021/07/02 01:04:24;;;;;;;4.97;3.30;;;;;;;;;;4978676;28;20469;-90
2021/07/02 01:06:52;;;;;;;4.22;2.70;;;;;;;;;;4980979;28;20405;-91
2021/07/02 01:09:19;;;;;;;4.75;2.90;;;;;;;;;;4974414;28;20438;-90
2021/07/02 01:11:46;;;;;;;5.07;3.05;;;;;;;;;;4987212;28;20419;-90
2021/07/02 01:14:13;;;;;;;5.70;2.80;;;;;;;;;;4984661;28;20418;-90
2021/07/02 01:16:41;;;;;;;4.57;2.97;;;;;;;;;;4961985;28;20954;-90
2021/07/02 01:19:08;;;;;;;6.68;3.38;;;;;;;;;;4989320;28;20477;-91
2021/07/02 01:21:36;;;;;;;5.13;3.17;;;;;;;;;;4972767;28;20500;-90
2021/07/02 01:24:04;;;;;;;5.15;3.40;;;;;;;;;;4980049;28;20904;-90
2021/07/02 01:26:32;;;;;;;6.15;4.20;;;;;;;;;;4981237;28;20429;-90
2021/07/02 01:28:59;;;;;;;6.95;4.25;;;;;;;;;;4977567;28;20414;-90
2021/07/02 01:31:27;;;;;;;6.10;4.18;;;;;;;;;;4985933;28;20412;-91
2021/07/02 01:33:54;;;;;;;4.70;4.30;;;;;;;;;;4976156;28;20813;-89
2021/07/02 01:36:23;;;;;;;5.77;3.90;;;;;;;;;;4980585;28;21068;-90
2021/07/02 01:38:52;;;;;;;4.90;3.40;;;;;;;;;;4981826;28;20431;-90
2021/07/02 01:41:19;;;;;;;5.22;3.38;;;;;;;;;;4981459;28;20467;-90
2021/07/02 01:43:45;;;;;;;4.25;2.88;;;;;;;;;;4975746;28;20412;-90
2021/07/02 01:46:12;;;;;;;4.88;2.58;;;;;;;;;;4975763;28;20463;-90
2021/07/02 01:48:39;;;;;;;3.72;2.67;;;;;;;;;;4977519;28;20424;-90
2021/07/02 01:51:06;;;;;;;3.90;2.60;;;;;;;;;;4976561;28;20414;-90
2021/07/02 01:53:33;;;;;;;6.30;2.80;;;;;;;;;;4982432;28;20820;-89
2021/07/02 01:56:02;;;;;;;3.85;2.35;;;;;;;;;;4984271;28;20406;-91
2021/07/02 01:58:29;;;;;;;3.03;2.10;;;;;;;;;;4978015;28;20431;-90
2021/07/02 02:00:56;;;;;;;4.50;2.20;;;;;;;;;;4985611;28;20412;-89
2021/07/02 02:03:23;;;;;;;3.25;2.00;;;;;;;;;;4976711;28;20489;-90
2021/07/02 02:05:50;;;;;;;3.80;2.00;;;;;;;;;;4988572;28;20413;-90
2021/07/02 02:08:17;;;;;;;2.40;2.20;;;;;;;;;;4986378;28;20521;-90
2021/07/02 02:10:44;;;;;;;2.92;2.15;;;;;;;;;;4981255;28;20461;-90
2021/07/02 02:13:12;;;;;;;3.22;2.30;;;;;;;;;;4986086;28;20510;-89
2021/07/02 02:15:39;;;;;;;3.45;2.40;;;;;;;;;;4986261;28;20423;-88
2021/07/02 02:18:06;;;;;;;3.20;2.30;;;;;;;;;;4984720;28;20742;-89
2021/07/02 02:20:33;;;;;;;4.15;2.78;;;;;;;;;;4985457;28;20409;-88
2021/07/02 02:23:00;;;;;;;3.83;2.23;;;;;;;;;;4986036;28;20770;-89
2021/07/02 02:25:27;;;;;;;3.53;2.50;;;;;;;;;;4976966;28;20409;-88
2021/07/02 02:27:55;;;;;;;2.83;2.40;;;;;;;;;;4985482;28;20409;-89
2021/07/02 02:30:23;;;;;;;3.38;2.70;;;;;;;;;;4973587;28;20483;-88
2021/07/02 02:32:51;;;;;;;5.70;2.72;;;;;;;;;;4982787;28;20467;-90
2021/07/02 02:35:18;;;;;;;4.97;2.72;;;;;;;;;;4982180;28;20415;-89
2021/07/02 02:37:44;;;;;;;2.88;2.55;;;;;;;;;;4985075;28;20425;-89
2021/07/02 02:40:12;;;;;;;4.15;2.60;;;;;;;;;;4985204;28;20412;-91
2021/07/02 02:42:39;;;;;;;3.83;2.50;;;;;;;;;;4984954;28;20409;-89
2021/07/02 02:45:07;;;;;;;4.97;2.90;;;;;;;;;;4985730;28;20438;-87
2021/07/02 02:47:36;;;;;;;4.22;2.72;;;;;;;;;;4963633;28;20405;-90
2021/07/02 02:50:05;;;;;;;3.42;2.70;;;;;;;;;;4981757;28;20487;-89
2021/07/02 02:52:32;;;;;;;4.35;2.72;;;;;;;;;;4985269;28;20409;-89
2021/07/02 02:54:58;;;;;;;4.50;2.90;;;;;;;;;;4984958;28;20432;-90
2021/07/02 02:57:25;;;;;;;5.05;2.90;;;;;;;;;;4984784;28;20436;-88
2021/07/02 02:59:52;;;;;;;3.97;3.20;;;;;;;;;;4984938;28;20969;-90
2021/07/02 03:02:19;;;;;;;5.47;2.97;;;;;;;;;;4985456;28;20409;-88
2021/07/02 03:04:47;;;;;;;4.50;3.15;;;;;;;;;;4984072;28;20773;-89
2021/07/02 03:07:14;;;;;;;4.22;2.85;;;;;;;;;;4982527;28;20419;-88
2021/07/02 03:09:41;;;;;;;6.53;3.10;;;;;;;;;;4985022;28;20415;-88
2021/07/02 03:12:08;;;;;;;5.05;2.85;;;;;;;;;;4984547;28;20475;-87
2021/07/02 03:14:35;;;;;;;4.07;2.90;;;;;;;;;;4980988;28;20401;-88
2021/07/02 03:17:02;;;;;;;4.03;3.10;;;;;;;;;;4984957;28;20424;-89
2021/07/02 03:19:28;;;;;;;4.25;2.70;;;;;;;;;;4977875;28;20472;-90
2021/07/02 03:21:57;;;;;;;3.20;2.80;;;;;;;;;;4972318;28;20483;-89
2021/07/02 03:24:25;;;;;;;5.05;2.70;;;;;;;;;;4983212;28;20424;-89
2021/07/02 03:26:52;;;;;;;3.70;2.80;;;;;;;;;;4985027;28;20409;-89
2021/07/02 03:29:19;;;;;;;4.13;3.00;;;;;;;;;;4980889;28;20496;-90
2021/07/02 03:31:46;;;;;;;4.77;2.87;;;;;;;;;;4984890;28;20505;-89
2021/07/02 03:34:12;;;;;;;3.47;2.97;;;;;;;;;;4984710;28;20421;-89
2021/07/02 03:36:39;;;;;;;4.47;3.20;;;;;;;;;;4969920;28;20416;-88
2021/07/02 03:39:08;;;;;;;4.30;3.40;;;;;;;;;;4984606;28;20432;-89
2021/07/02 03:41:35;;;;;;;4.80;3.20;;;;;;;;;;4984959;28;20412;-90
2021/07/02 03:44:01;;;;;;;4.68;3.22;;;;;;;;;;4983784;28;20408;-90
2021/07/02 03:46:30;;;;;;;6.45;3.20;;;;;;;;;;4983451;28;20412;-89
2021/07/02 03:48:56;;;;;;;5.82;3.35;;;;;;;;;;4984768;28;20413;-90
2021/07/02 03:51:23;;;;;;;4.25;3.40;;;;;;;;;;4984614;28;20412;-90
2021/07/02 03:53:50;;;;;;;5.28;3.25;;;;;;;;;;4984392;28;20872;-90
2021/07/02 03:56:19;;;;;;;5.13;3.42;;;;;;;;;;4976736;28;20402;-90
2021/07/02 03:58:46;;;;;;;4.65;3.25;;;;;;;;;;4984645;28;20420;-90
2021/07/02 04:01:13;;;;;;;5.60;3.20;;;;;;;;;;4984359;28;20845;-90
2021/07/02 04:03:40;;;;;;;6.15;3.30;;;;;;;;;;4974718;28;20432;-90
2021/07/02 04:06:06;;;;;;;5.03;3.38;;;;;;;;;;4982519;28;20487;-90
2021/07/02 04:08:33;;;;;;;4.63;3.83;;;;;;;;;;4980707;28;20800;-88
2021/07/02 04:11:01;;;;;;;4.93;3.53;;;;;;;;;;4975268;28;20414;-90
2021/07/02 04:13:29;;;;;;;4.95;3.53;;;;;;;;;;4980386;28;20408;-90
2021/07/02 04:15:56;;;;;;;4.93;3.38;;;;;;;;;;4974772;28;20494;-89
2021/07/02 04:18:22;;;;;;;5.75;3.67;;;;;;;;;;4974515;28;20884;-90
2021/07/02 04:20:49;;;;;;;4.40;3.35;;;;;;;;;;4979886;28;20972;-90
2021/07/02 04:23:16;;;;;;;5.93;3.70;;;;;;;;;;4977644;28;20816;-89
2021/07/02 04:25:43;;;;;;;5.68;3.83;;;;;;;;;;4980266;28;20487;-90
2021/07/02 04:28:10;;;;;;;5.05;3.10;;;;;;;;;;4972912;28;20909;-89
2021/07/02 04:30:38;;;;;;;5.35;3.40;;;;;;;;;;4981614;28;20405;-89
2021/07/02 04:33:05;;;;;;;6.85;3.70;;;;;;;;;;4982134;28;21191;-89
2021/07/02 04:35:32;;;;;;;9.02;4.18;;;;;;;;;;4972070;28;20884;-90
2021/07/02 04:37:59;;;;;;;5.43;3.38;;;;;;;;;;4976702;28;20851;-89
2021/07/02 04:40:26;;;;;;;6.68;3.58;;;;;;;;;;4975405;28;20740;-90
2021/07/02 04:42:53;;;;;;;7.28;4.20;;;;;;;;;;4982112;28;20425;-90
2021/07/02 04:45:20;;;;;;;5.93;3.40;;;;;;;;;;4977969;28;20460;-89
2021/07/02 04:47:48;;;;;;;4.47;3.67;;;;;;;;;;4978172;28;20417;-89
2021/07/02 04:50:15;;;;;;;4.50;3.83;;;;;;;;;;4981966;28;20454;-89
2021/07/02 04:52:42;;;;;;;8.30;3.72;;;;;;;;;;4981050;28;20451;-89
2021/07/02 04:55:10;;;;;;;3.92;3.20;;;;;;;;;;4974768;28;20926;-90
2021/07/02 04:57:37;;;;;;;5.30;3.42;;;;;;;;;;4978105;28;20473;-90
2021/07/02 05:00:06;;;;;;;6.65;3.55;;;;;;;;;;4980759;28;20424;-89
2021/07/02 05:02:33;;;;;;;4.95;3.53;;;;;;;;;;4982851;28;20473;-88
2021/07/02 05:05:01;;;;;;;5.45;4.03;;;;;;;;;;4979345;28;20456;-90
2021/07/02 05:07:30;;;;;;;6.68;4.10;;;;;;;;;;4983042;28;20451;-90
2021/07/02 05:09:57;;;;;;;6.78;4.50;;;;;;;;;;4984532;28;20920;-89
2021/07/02 05:12:24;;;;;;;6.07;4.53;;;;;;;;;;4982490;28;20482;-89
2021/07/02 05:14:51;;;;;;;6.05;4.70;;;;;;;;;;4982542;28;20455;-91
2021/07/02 05:17:18;;;;;;;6.47;5.20;;;;;;;;;;4988980;28;20487;-89
2021/07/02 05:19:45;;;;;;;8.15;5.22;;;;;;;;;;4995873;28;20704;-90
2021/07/02 05:22:16;;;;;;;7.95;5.30;;;;;;;;;;5001238;28;20397;-90
2021/07/02 05:24:43;;;;;;;7.13;4.78;;;;;;;;;;4990294;28;20449;-90
2021/07/02 05:27:11;;;;;;;5.22;4.35;;;;;;;;;;4977718;28;20411;-90
2021/07/02 05:29:38;;;;;;;5.57;4.10;;;;;;;;;;4965165;28;20464;-91
2021/07/02 05:32:06;;;;;;;4.70;4.10;;;;;;;;;;4973482;28;20411;-90
2021/07/02 05:34:33;;;;;;;6.15;4.53;;;;;;;;;;4978687;28;21382;-87
2021/07/02 05:37:01;;;;;;;5.05;4.32;;;;;;;;;;4964501;28;20821;-88
2021/07/02 05:39:29;;;;;;;6.10;4.97;;;;;;;;;;4977130;28;20430;-89
2021/07/02 05:41:56;;;;;;;8.65;5.13;;;;;;;;;;4978060;28;20412;-91
2021/07/02 05:44:23;;;;;;;5.87;5.20;;;;;;;;;;4973576;28;20414;-91
2021/07/02 05:46:50;;;;;;;6.00;5.20;;;;;;;;;;4973331;28;20427;-89
2021/07/02 05:49:18;;;;;;;6.97;5.45;;;;;;;;;;4982227;28;20410;-90
2021/07/02 05:51:45;;;;;;;7.35;5.10;;;;;;;;;;4976241;28;20467;-91
2021/07/02 05:54:12;;;;;;;6.40;4.70;;;;;;;;;;4979042;28;20467;-77
2021/07/02 05:56:41;;;;;;;5.00;4.53;;;;;;;;;;4977638;28;20436;-90
2021/07/02 05:59:08;;;;;;;7.80;4.90;;;;;;;;;;4977995;28;20815;-92
2021/07/02 06:01:35;;;;;;;5.13;4.07;;;;;;;;;;4983265;28;20470;-91
2021/07/02 06:04:02;;;;;;;4.70;4.30;;;;;;;;;;4983950;28;20424;-92
2021/07/02 06:06:29;;;;;;;5.00;3.90;;;;;;;;;;4984296;28;20875;-92
2021/07/02 06:08:57;;;;;;;4.77;4.20;;;;;;;;;;4989970;28;20404;-91
2021/07/02 06:11:24;;;;;;;5.27;3.90;;;;;;;;;;4976070;28;20404;-92
2021/07/02 06:13:52;;;;;;;7.25;3.90;;;;;;;;;;4969498;28;20479;-92
2021/07/02 06:16:19;;;;;;;4.90;3.57;;;;;;;;;;4981772;28;20984;-92
2021/07/02 06:18:46;;;;;;;4.50;4.10;;;;;;;;;;4979794;28;20964;-92
2021/07/02 06:21:13;;;;;;;5.53;3.63;;;;;;;;;;4982259;28;20447;-93
2021/07/02 06:23:41;;;;;;;5.45;3.85;;;;;;;;;;4987847;28;20421;-92
2021/07/02 06:26:09;;;;;;;6.07;3.85;;;;;;;;;;4979264;28;20400;-93
2021/07/02 06:28:37;;;;;;;5.60;4.30;;;;;;;;;;4980773;28;20420;-92
2021/07/02 06:31:05;;;;;;;5.13;4.22;;;;;;;;;;4982673;28;20447;-92
2021/07/02 06:33:33;;;;;;;6.13;3.70;;;;;;;;;;4984156;28;20418;-93
2021/07/02 06:35:59;;;;;;;4.80;3.67;;;;;;;;;;4976564;28;20422;-93
2021/07/02 06:38:27;;;;;;;5.90;4.15;;;;;;;;;;4963290;28;20412;-93
2021/07/02 06:40:53;;;;;;;6.50;3.65;;;;;;;;;;4970235;28;20424;-93
2021/07/02 06:43:20;;;;;;;4.80;3.50;;;;;;;;;;4986080;28;20435;-93
2021/07/02 06:45:48;;;;;;;4.30;2.90;;;;;;;;;;4983924;28;20420;-93
2021/07/02 06:48:19;;;;;;;6.05;3.22;;;;;;;;;;4981944;28;20424;-93
2021/07/02 06:50:47;;;;;;;4.93;3.00;;;;;;;;;;4959284;28;20478;-93
2021/07/02 06:53:15;;;;;;;4.32;2.88;;;;;;;;;;4977785;28;20426;-92
2021/07/02 06:55:42;;;;;;;4.85;2.70;;;;;;;;;;4986922;28;20413;-92
2021/07/02 06:58:10;;;;;;;3.23;2.00;;;;;;;;;;4990770;22;20541;-87
2021/07/02 07:00:41;;;;;;;3.95;1.90;;;;;;;;;;4972127;28;20468;-88
2021/07/02 07:03:08;;;;;;;2.10;1.70;;;;;;;;;;4977639;28;20410;-88
2021/07/02 07:05:37;;;;;;;2.88;1.92;;;;;;;;;;4976015;28;20455;-88
2021/07/02 07:08:07;;;;;;;3.78;2.00;;;;;;;;;;4974018;28;20413;-88
2021/07/02 07:10:34;;;;;;;4.38;2.05;;;;;;;;;;4984783;28;20425;-88
2021/07/02 07:13:02;;;;;;;4.07;1.90;;;;;;;;;;4980650;28;20487;-87
2021/07/02 07:15:28;;;;;;;5.68;1.90;;;;;;;;;;4978804;28;20427;-88
2021/07/02 07:17:55;;;;;;;3.33;1.60;;;;;;;;;;4976534;28;20413;-88
2021/07/02 07:20:23;;;;;;;2.45;1.33;;;;;;;;;;4981304;28;20832;-87
2021/07/02 07:22:51;;;;;;;1.80;1.25;;;;;;;;;;4976821;28;20409;-87
2021/07/02 07:25:21;;;;;;;2.80;1.20;;;;;;;;;;4979179;28;20414;-89
2021/07/02 07:27:48;;;;;;;4.47;1.50;;;;;;;;;;4975143;28;20440;-88
2021/07/02 07:30:16;;;;;;;4.20;1.60;;;;;;;;;;4982273;28;20404;-87
2021/07/02 07:32:44;;;;;;;3.87;1.70;;;;;;;;;;4983925;28;20630;-89
2021/07/02 07:35:23;;;;;;;4.43;1.77;;;;;;;;;;4975792;28;20504;-88
2021/07/02 07:37:54;;;;;;;3.15;1.38;;;;;;;;;;4973685;28;20443;-88
2021/07/02 07:40:22;;;;;;;2.40;1.40;;;;;;;;;;4973553;28;20451;-88
2021/07/02 07:42:49;;;;;;;3.65;1.60;;;;;;;;;;4975079;28;20479;-87
2021/07/02 07:45:16;;;;;;;3.50;1.40;;;;;;;;;;4972408;28;20521;-88
2021/07/02 07:47:43;;;;;;;4.15;1.40;;;;;;;;;;4975058;28;20408;-88
2021/07/02 07:50:14;;;;;;;4.20;1.33;;;;;;;;;;4982615;28;20416;-88
2021/07/02 07:52:46;;;;;;;1.63;1.30;;;;;;;;;;4984164;28;20423;-87
2021/07/02 07:55:15;;;;;;;2.40;1.30;;;;;;;;;;4984381;28;20467;-86
2021/07/02 07:57:41;;;;;;;5.77;1.60;;;;;;;;;;4984114;28;20821;-88
2021/07/02 08:00:10;;;;;;;2.88;1.27;;;;;;;;;;4984325;28;20475;-87
2021/07/02 08:02:37;;;;;;;3.38;1.15;;;;;;;;;;4983692;28;20754;-87
2021/07/02 08:05:05;;;;;;;2.53;1.10;;;;;;;;;;4983857;28;20439;-87
2021/07/02 08:07:36;;;;;;;2.30;0.90;;;;;;;;;;4983855;28;20467;-87
2021/07/02 08:10:05;;;;;;;3.97;1.23;;;;;;;;;;4983717;28;20829;-87
2021/07/02 08:12:34;;;;;;;3.87;1.20;;;;;;;;;;4983526;28;20485;-87
2021/07/02 08:15:01;;;;;;;1.75;1.00;;;;;;;;;;4983650;28;20922;-87
2021/07/02 08:17:29;;;;;;;2.47;1.05;;;;;;;;;;4987589;28;20471;-87
2021/07/02 08:19:56;;;;;;;2.95;1.23;;;;;;;;;;4987667;28;20418;-87
2021/07/02 08:22:23;;;;;;;3.38;1.33;;;;;;;;;;4987660;28;20467;-87
2021/07/02 08:24:51;;;;;;;2.83;1.17;;;;;;;;;;4986762;28;20401;-88
2021/07/02 08:27:18;;;;;;;3.30;1.10;;;;;;;;;;4985749;28;20503;-87
2021/07/02 08:29:46;;;;;;;2.10;0.95;;;;;;;;;;4986661;28;20424;-87
2021/07/02 08:32:13;;;;;;;1.73;0.77;;;;;;;;;;4986110;28;20936;-87
2021/07/02 08:34:40;;;;;;;3.38;1.10;;;;;;;;;;4986837;28;20424;-87
2021/07/02 08:37:07;;;;;;;2.42;0.85;;;;;;;;;;4986432;28;20829;-87
2021/07/02 08:39:34;;;;;;;3.63;1.20;;;;;;;;;;4986529;28;20788;-88
2021/07/02 08:42:03;;;;;;;2.72;0.93;;;;;;;;;;4986560;28;20401;-87
2021/07/02 08:44:29;;;;;;;2.88;0.80;;;;;;;;;;4981634;28;20888;-87
2021/07/02 08:46:59;;;;;;;3.42;0.90;;;;;;;;;;4978631;28;20463;-88
2021/07/02 08:49:28;;;;;;;2.20;0.90;;;;;;;;;;4982746;28;20419;-87
2021/07/02 08:51:56;;;;;;;1.98;0.70;;;;;;;;;;4976321;28;20426;-88
2021/07/02 08:54:23;;;;;;;0.80;0.70;;;;;;;;;;4977999;28;20413;-87
2021/07/02 08:56:57;;;;;;;0.98;0.70;;;;;;;;;;4976939;28;20470;-88
2021/07/02 08:59:24;;;;;;;0.87;0.70;;;;;;;;;;4974609;28;20424;-87
2021/07/02 09:01:51;;;;;;;1.00;0.70;;;;;;;;;;4984539;28;20448;-87
2021/07/02 09:04:22;;;;;;;1.23;0.60;;;;;;;;;;4985102;28;20424;-88
2021/07/02 09:07:03;;;;;;;2.30;0.60;;;;;;;;;;4985839;28;20409;-87
2021/07/02 09:09:48;;;;;;;1.77;0.60;;;;;;;;;;4981754;28;20499;-87
2021/07/02 09:12:16;;;;;;;1.77;0.57;;;;;;;;;;4979153;28;20420;-86
2021/07/02 09:14:57;;;;;;;1.23;0.90;;;;;;;;;;4977939;28;20426;-88
2021/07/02 09:17:25;;;;;;;1.85;0.70;;;;;;;;;;4983854;28;20476;-88
2021/07/02 09:20:19;;;;;;;1.02;0.60;;;;;;;;;;4973010;28;20416;-88
2021/07/02 09:22:49;;;;;;;3.50;0.50;;;;;;;;;;4971031;28;20803;-88
2021/07/02 09:25:27;;;;;;;0.80;0.60;;;;;;;;;;4982926;28;20438;-87
2021/07/02 09:27:57;;;;;;;1.50;0.73;;;;;;;;;;4983595;28;20452;-88
2021/07/02 09:30:26;;;;;;;1.20;0.50;;;;;;;;;;4976730;28;20773;-88
2021/07/02 09:32:54;;;;;;;1.65;0.50;;;;;;;;;;4973049;28;20443;-88
2021/07/02 09:35:29;;;;;;;0.93;0.50;;;;;;;;;;4986820;28;20812;-88
2021/07/02 09:37:58;;;;;;;1.17;0.40;;;;;;;;;;4983428;28;20451;-88
2021/07/02 09:40:27;;;;;;;1.67;0.68;;;;;;;;;;4982297;28;21498;-88
2021/07/02 09:43:06;;;;;;;1.20;0.60;;;;;;;;;;4984117;28;20468;-87
2021/07/02 09:45:34;;;;;;;0.65;0.32;;;;;;;;;;4978004;28;20804;-87
2021/07/02 09:48:08;;;;;;;1.70;0.40;;;;;;;;;;4981406;28;20574;-87
2021/07/02 09:50:38;;;;;;;0.70;0.55;;;;;;;;;;4978632;28;20421;-88
2021/07/02 09:53:09;;;;;;;0.40;0.30;;;;;;;;;;4978382;28;20471;-88
2021/07/02 09:55:43;;;;;;;0.45;0.40;;;;;;;;;;4980064;28;20419;-88
2021/07/02 09:58:11;;;;;;;0.82;0.40;;;;;;;;;;4981566;28;20499;-87
2021/07/02 10:00:43;;;;;;;1.33;0.40;;;;;;;;;;4975079;28;20430;-88
2021/07/02 10:03:11;;;;;;;0.65;0.40;;;;;;;;;;4977634;28;20412;-87
2021/07/02 10:05:54;;;;;;;0.85;0.40;;;;;;;;;;4978675;28;20884;-88
2021/07/02 10:08:22;;;;;;;0.70;0.40;;;;;;;;;;4976369;28;20964;-88
2021/07/02 10:10:50;;;;;;;1.23;0.40;;;;;;;;;;4976192;28;20804;-89
2021/07/02 10:13:19;;;;;;;0.93;0.40;;;;;;;;;;4976924;28;20420;-87
2021/07/02 10:15:47;;;;;;;0.70;0.40;;;;;;;;;;4978575;28;20774;-87
2021/07/02 10:18:16;;;;;;;1.35;0.50;;;;;;;;;;4978245;28;20473;-88
2021/07/02 10:20:44;;;;;;;2.72;0.40;;;;;;;;;;4981505;28;20479;-88
2021/07/02 10:23:16;;;;;;;0.35;0.35;;;;;;;;;;4976997;28;20425;-88
2021/07/02 10:25:44;;;;;;;0.80;0.30;;;;;;;;;;4984824;28;20800;-88
2021/07/02 10:28:12;;;;;;;1.10;0.30;;;;;;;;;;4978109;28;20412;-88
2021/07/02 10:30:41;;;;;;;1.08;0.30;;;;;;;;;;4972875;28;20414;-88
2021/07/02 10:33:08;;;;;;;0.47;0.30;;;;;;;;;;4972493;28;20406;-87
2021/07/02 10:35:36;;;;;;;0.40;0.30;;;;;;;;;;4976891;28;21026;-87
2021/07/02 10:38:07;;;;;;;0.47;0.35;;;;;;;;;;4973497;28;20414;-87
2021/07/02 10:40:39;;;;;;;0.30;0.30;;;;;;;;;;4980642;28;20816;-87
2021/07/02 10:43:16;;;;;;;1.45;0.40;;;;;;;;;;4977800;28;20484;-86
2021/07/02 10:46:16;;;;;;;0.85;0.40;;;;;;;;;;4977191;28;20404;-86
2021/07/02 10:49:01;;;;;;;1.25;0.35;;;;;;;;;;4976229;28;20421;-88
2021/07/02 10:52:01;;;;;;;1.98;0.30;;;;;;;;;;4977671;28;20429;-87
2021/07/02 10:54:35;;;;;;;1.10;0.40;;;;;;;;;;4973311;28;20416;-87
2021/07/02 10:57:17;;;;;;;0.93;0.43;;;;;;;;;;4972287;28;20421;-87
2021/07/02 11:00:21;;;;;;;1.70;0.40;;;;;;;;;;4974752;28;20409;-88
2021/07/02 11:02:48;;;;;;;0.50;0.30;;;;;;;;;;4975332;28;20736;-87
2021/07/02 11:05:30;;;;;;;1.30;0.40;;;;;;;;;;4971194;28;20408;-89
2021/07/02 11:07:57;;;;;;;0.40;0.22;;;;;;;;;;4970786;28;20414;-86
2021/07/02 11:10:24;;;;;;;0.35;0.35;;;;;;;;;;4976530;28;20495;-86
2021/07/02 11:13:07;;;;;;;0.65;0.30;;;;;;;;;;4975435;28;20431;-87
2021/07/02 11:15:34;;;;;;;1.30;0.50;;;;;;;;;;4970953;28;20418;-86
2021/07/02 11:18:15;;;;;;;0.50;0.40;;;;;;;;;;4978096;28;20428;-86
2021/07/02 11:20:42;;;;;;;0.90;0.30;;;;;;;;;;4969978;28;21081;-85
2021/07/02 11:23:22;;;;;;;0.75;0.50;;;;;;;;;;4977155;28;20823;-86
2021/07/02 11:26:10;;;;;;;1.05;0.43;;;;;;;;;;4981362;28;20409;-87
2021/07/02 11:28:47;;;;;;;0.90;0.40;;;;;;;;;;4974205;28;20428;-88
2021/07/02 11:31:17;;;;;;;1.10;0.52;;;;;;;;;;4974544;28;20409;-82
2021/07/02 11:33:44;;;;;;;0.40;0.40;;;;;;;;;;4980847;28;20419;-82
2021/07/02 11:36:19;;;;;;;0.50;0.47;;;;;;;;;;4980901;28;21007;-83
2021/07/02 11:39:03;;;;;;;0.20;0.20;;;;;;;;;;4982053;28;20405;-89
2021/07/02 11:41:34;;;;;;;1.42;0.47;;;;;;;;;;4964754;28;20448;-88
2021/07/02 11:44:04;;;;;;;0.73;0.40;;;;;;;;;;4982537;28;20424;-87
2021/07/02 11:46:32;;;;;;;1.25;0.50;;;;;;;;;;4957691;28;20412;-87
2021/07/02 11:49:00;;;;;;;0.70;0.43;;;;;;;;;;4958459;28;20913;-87
2021/07/02 11:51:29;;;;;;;0.52;0.50;;;;;;;;;;4975128;28;20421;-87
2021/07/02 11:53:58;;;;;;;1.17;0.50;;;;;;;;;;4973320;28;20406;-87
2021/07/02 11:56:28;;;;;;;1.50;0.52;;;;;;;;;;4982904;28;20417;-86
2021/07/02 11:58:58;;;;;;;0.80;0.50;;;;;;;;;;4981443;28;20417;-86
2021/07/02 12:01:27;;;;;;;0.60;0.50;;;;;;;;;;4982403;28;21113;-86
2021/07/02 12:03:56;;;;;;;1.27;0.65;;;;;;;;;;4985303;28;20412;-86
2021/07/02 12:06:26;;;;;;;0.47;0.40;;;;;;;;;;4984192;28;20896;-87
2021/07/02 12:08:58;;;;;;;2.92;0.50;;;;;;;;;;4981281;28;20412;-86
2021/07/02 12:11:36;;;;;;;0.90;0.50;;;;;;;;;;4984137;28;20915;-87
2021/07/02 12:14:04;;;;;;;0.50;0.40;;;;;;;;;;4983531;28;20925;-87
2021/07/02 12:16:36;;;;;;;1.10;0.60;;;;;;;;;;4982763;28;20413;-88
2021/07/02 12:19:05;;;;;;;0.60;0.50;;;;;;;;;;4986259;28;20499;-87
2021/07/02 12:21:32;;;;;;;1.42;0.50;;;;;;;;;;4983372;28;20848;-87
2021/07/02 12:24:01;;;;;;;1.50;0.50;;;;;;;;;;4985491;28;20820;-88
2021/07/02 12:26:29;;;;;;;0.70;0.40;;;;;;;;;;4986430;28;20788;-87
2021/07/02 12:29:02;;;;;;;1.60;0.50;;;;;;;;;;4987521;28;20429;-87
2021/07/02 12:31:31;;;;;;;0.90;0.60;;;;;;;;;;4985479;28;20430;-88
2021/07/02 12:34:01;;;;;;;0.98;0.60;;;;;;;;;;4985197;28;20405;-88
2021/07/02 12:36:30;;;;;;;0.80;0.40;;;;;;;;;;4986346;28;20413;-87
2021/07/02 12:39:10;;;;;;;0.82;0.60;;;;;;;;;;4985485;28;20423;-87
2021/07/02 12:41:42;;;;;;;0.77;0.50;;;;;;;;;;4987077;28;20494;-87
2021/07/02 12:44:10;;;;;;;0.70;0.60;;;;;;;;;;4986154;28;20417;-87
2021/07/02 12:46:40;;;;;;;0.95;0.50;;;;;;;;;;4984727;28;20780;-88
2021/07/02 12:49:23;;;;;;;1.10;0.60;;;;;;;;;;4984491;28;20973;-86
2021/07/02 12:54:56;;;;;;;2.58;0.63;;;;;;;;;;4980150;28;20540;-87
2021/07/02 12:57:30;;;;;;;1.47;0.60;;;;;;;;;;4987341;28;20409;-86
2021/07/02 12:59:59;;;;;;;0.57;0.50;;;;;;;;;;4985716;28;20417;-87
2021/07/02 13:02:32;;;;;;;1.20;0.70;;;;;;;;;;4984977;28;20421;-87
2021/07/02 13:05:02;;;;;;;1.17;0.63;;;;;;;;;;4985778;28;20404;-88
2021/07/02 13:07:45;;;;;;;3.50;0.77;;;;;;;;;;4986455;28;20492;-88
2021/07/02 13:10:14;;;;;;;2.90;0.80;;;;;;;;;;4986482;28;20409;-87
2021/07/02 13:12:41;;;;;;;0.80;0.63;;;;;;;;;;4988331;28;20471;-88
2021/07/02 13:15:11;;;;;;;0.70;0.50;;;;;;;;;;4986881;28;20895;-86
2021/07/02 13:17:43;;;;;;;0.60;0.55;;;;;;;;;;4984671;28;20416;-87
2021/07/02 13:20:14;;;;;;;2.75;0.70;;;;;;;;;;4985504;28;20452;-87
2021/07/02 13:22:41;;;;;;;2.88;0.70;;;;;;;;;;4983778;28;20433;-88
2021/07/02 13:25:13;;;;;;;1.20;0.50;;;;;;;;;;4986621;28;20409;-89
2021/07/02 13:27:40;;;;;;;1.25;0.50;;;;;;;;;;4984069;28;20424;-87
2021/07/02 13:30:09;;;;;;;0.70;0.57;;;;;;;;;;4985550;28;20416;-88
2021/07/02 13:32:37;;;;;;;1.73;0.60;;;;;;;;;;4985807;28;20417;-88
2021/07/02 13:35:21;;;;;;;1.45;0.63;;;;;;;;;;4986110;28;20738;-85
2021/07/02 13:37:55;;;;;;;0.70;0.68;;;;;;;;;;4985433;28;20912;-89
2021/07/02 13:40:36;;;;;;;1.13;0.80;;;;;;;;;;4986633;28;20412;-89
2021/07/02 13:43:05;;;;;;;1.90;0.95;;;;;;;;;;4985687;28;20649;-90
2021/07/02 13:45:32;;;;;;;2.10;0.77;;;;;;;;;;4985251;28;20832;-90
2021/07/02 13:48:07;;;;;;;1.10;0.70;;;;;;;;;;4986833;28;20423;-89
2021/07/02 13:50:38;;;;;;;1.40;0.70;;;;;;;;;;4986246;28;20428;-88
2021/07/02 13:53:13;;;;;;;1.45;0.70;;;;;;;;;;4986162;28;20560;-90
2021/07/02 13:55:40;;;;;;;1.17;0.67;;;;;;;;;;4986093;28;20885;-89
2021/07/02 13:58:07;;;;;;;0.85;0.60;;;;;;;;;;4986737;28;20412;-89
2021/07/02 14:00:34;;;;;;;1.00;0.82;;;;;;;;;;4986798;28;20963;-89
2021/07/02 14:03:00;;;;;;;1.70;0.70;;;;;;;;;;4986621;28;20428;-88
2021/07/02 14:05:27;;;;;;;2.53;0.90;;;;;;;;;;4985731;28;20416;-88
2021/07/02 14:07:56;;;;;;;1.83;0.82;;;;;;;;;;4986749;28;20428;-89
2021/07/02 14:10:23;;;;;;;0.73;0.70;;;;;;;;;;4986536;28;20419;-89
2021/07/02 14:12:49;;;;;;;0.98;0.80;;;;;;;;;;4986792;28;20412;-90
2021/07/02 14:15:16;;;;;;;1.15;0.60;;;;;;;;;;4983565;28;20479;-89
2021/07/02 14:17:45;;;;;;;1.60;0.95;;;;;;;;;;4986629;28;20777;-90
2021/07/02 14:20:12;;;;;;;1.00;0.70;;;;;;;;;;4986136;28;20417;-89
2021/07/02 14:22:43;;;;;;;1.20;0.70;;;;;;;;;;4984932;28;20424;-90
2021/07/02 14:25:12;;;;;;;1.40;0.70;;;;;;;;;;4986308;28;20459;-90
2021/07/02 14:27:39;;;;;;;1.40;0.80;;;;;;;;;;4985261;28;20421;-90
2021/07/02 14:30:08;;;;;;;1.90;0.65;;;;;;;;;;4980190;28;20471;-90
2021/07/02 14:32:36;;;;;;;0.70;0.70;;;;;;;;;;4992574;28;20409;-89
2021/07/02 14:35:03;;;;;;;1.30;0.63;;;;;;;;;;4995789;28;20412;-90
2021/07/02 14:37:30;;;;;;;1.85;0.82;;;;;;;;;;4994679;28;20417;-90
2021/07/02 14:39:57;;;;;;;1.13;1.00;;;;;;;;;;4996283;28;20409;-90
2021/07/02 14:42:26;;;;;;;0.80;0.80;;;;;;;;;;4987885;28;20416;-88
2021/07/02 14:44:52;;;;;;;1.70;0.80;;;;;;;;;;4992334;28;20409;-90
2021/07/02 14:47:20;;;;;;;1.02;0.77;;;;;;;;;;4985407;28;20409;-90
2021/07/02 14:49:47;;;;;;;1.50;0.70;;;;;;;;;;4984296;28;20416;-90
2021/07/02 14:52:14;;;;;;;0.90;0.90;;;;;;;;;;4993099;28;20416;-91
2021/07/02 14:54:41;;;;;;;1.77;0.90;;;;;;;;;;4996925;28;20423;-90
2021/07/02 14:57:09;;;;;;;1.80;0.80;;;;;;;;;;4989180;28;20427;-86